Miguel Paz

Scout - San Martín SJ
16 Apr 2028
Sonntag
Verarbeitung

Persönlichkeit

Anpassungsfähigkeit (13) Ehrgeiz (9) Kontroverse (1) Loyalität (1) Druck (2) Professionalität (5) Fairness (18) Temperament (11)

Profil

Trainerstil Demokratisch
Lizenz Kontinentale Pro
Entschlossenheit 5
Menschenführung 11
Motivation 10
Disziplin 6
Arbeitszufriedenheit
100%
Ermüdung
0%
Rolle Scout
Gehalt 66.0K p/W
Vertrag 14.03.2030

Leistung

Verhalten Gut
Trainingseffektivität
45%
Spielerentwicklung
25%
Verletzungsprävention
20%
Taktische Umsetzung
55%

Letzte Ereignisse

Nahm an einer Scouting-Besprechung teil 7T her
Nahm an einer Scouting-Besprechung teil 14T her
Nahm an einer Scouting-Besprechung teil 21T her
Nahm an einer Scouting-Besprechung teil 28T her
Nahm an einer Scouting-Besprechung teil 35T her
Nahm an einer Scouting-Besprechung teil 42T her
Nahm an einer Scouting-Besprechung teil 49T her
Nahm an einer Scouting-Besprechung teil 56T her

Aktuell beobachtet

104
Spieler Verein Status Fähigkeit Vertrauen Beobachtet Zuletzt beobachtet Letzte Stimme
Jordan Amissah Burton Albion Aktiv 108 / 105 40% 1 29.11.2026 -
Matevž Vidovšek Olimpija Ljubljana Aktiv 113 / 121 40% 1 29.11.2026 -
Josh Tymon Swansea City Aktiv 137 / 132 40% 1 28.11.2026 -
George Wickens Lincoln City Aktiv 116 / 116 40% 1 27.11.2026 -
Will Mannion Charlton Athletic Aktiv 121 / 112 40% 1 27.11.2026 -
Bruno Antúnez Boston River Aktiv 108 / 116 40% 4 25.11.2026 -
Zach Hemming Chesterfield Aktiv 101 / 102 40% 2 25.11.2026 -
Adam Randell Bristol City Aktiv 135 / 127 40% 1 23.11.2026 -
Yhormar Hurtado Lechia Aktiv 110 / 115 40% 2 22.11.2026 -
Matheus Silva Qarabag Aktiv 135 / 112 40% 1 22.11.2026 -
Patrik Demjén MTK Budapest Aktiv 119 / 104 40% 1 20.11.2026 -
Alfie Whiteman Newport County Aktiv 121 / 104 40% 1 20.11.2026 -
Pablo García Gijón Aktiv 107 / 111 40% 1 20.11.2026 -
Ignacio Rodríguez Racing Club Aktiv 132 / 124 40% 3 19.11.2026 -
Will Dennis Milton Keynes Dons Aktiv 93 / 113 40% 1 18.11.2026 -
Dayne St. Clair Inter Miami CF Aktiv 129 / 120 40% 2 16.11.2026 -
Justin Hammel Grasshopper Aktiv 111 / 115 40% 1 16.11.2026 -
Patrick Schulte Columbus Crew Aktiv 115 / 116 40% 2 14.11.2026 -
Carlos da Rosa Cerro Aktiv 90 / 101 40% 1 10.11.2026 -
Naledi Hlongwane Wa All Stars Aktiv 98 / 102 40% 1 08.11.2026 -
Csanád Vilmos Dénes Debrecen Aktiv 101 / 105 40% 1 08.11.2026 -
Anthony Patterson Wrexham Aktiv 130 / 136 40% 3 06.11.2026 -
Egoitz Arana Real Sociedad Aktiv 111 / 114 40% 2 06.11.2026 -
Xavier Biscayzacú Defensor Sporting Aktiv 122 / 133 40% 1 06.11.2026 -
Sandi Zajc NK Domzale Aktiv 99 / 106 40% 1 04.11.2026 -
Eneko Astigarraga Real Sociedad Aktiv 88 / 87 40% 1 04.11.2026 -
Emiliano Álvarez Progreso Aktiv 116 / 127 40% 1 02.11.2026 -
Agustín Buffa Wanderers Aktiv 91 / 94 40% 1 31.10.2026 -
Juan Pablo Salomoni Union La Calera Aktiv 102 / 114 40% 2 29.10.2026 -
Óscar Díaz Miramar Misiones Aktiv 102 / 117 40% 1 29.10.2026 -
Drake Callender Minnesota United FC Aktiv 123 / 117 40% 1 28.10.2026 -
Roman Celentano FC Cincinnati Aktiv 118 / 113 40% 1 28.10.2026 -
Diego Enríquez Sporting Cristal Aktiv 119 / 121 40% 3 26.10.2026 -
Josh Keeley Luton Town Aktiv 134 / 116 40% 1 26.10.2026 -
Thomas Carrique Andorra Aktiv 131 / 127 40% 2 25.10.2026 -
Lucas Souto Defensa y Justicia Aktiv 123 / 120 40% 1 25.10.2026 -
Facundo Miño Deportivo Riestra Aktiv 115 / 117 40% 1 24.10.2026 -
Luis Ingolotti Atlético Tucumán Aktiv 112 / 121 40% 2 23.10.2026 -
Teboho Mokoena Mamelodi Sundowns Aktiv 144 / 124 40% 2 22.10.2026 -
Álex Vázquez Racing Aktiv 104 / 109 40% 1 22.10.2026 -
Myles Roberts Cambridge United Aktiv 89 / 103 40% 1 22.10.2026 -
Alex Bass Peterborough United Aktiv 100 / 113 40% 1 22.10.2026 -
Leo Castledine Middlesbrough Aktiv 112 / 142 40% 1 21.10.2026 -
Balázs Tóth Blackburn Rovers Aktiv 137 / 114 40% 1 20.10.2026 -
Tobías Bovone Deportivo Pereira Aktiv 112 / 109 40% 1 19.10.2026 -
Fernando Hernández Bekescsaba Aktiv 82 / 94 40% 1 17.10.2026 -
Leandro Lozano Boca Juniors Aktiv 128 / 126 40% 1 14.10.2026 -
Mauro Casoli Talleres Aktiv 94 / 110 40% 1 13.10.2026 -
Lautaro Petruchi Gimnasia y Esgrima Aktiv 113 / 115 40% 1 11.10.2026 -
Viktor Johansson Stoke City Aktiv 136 / 141 40% 1 10.10.2026 -
Luciano Jachfe Nueva Chicago Aktiv 119 / 123 40% 1 09.10.2026 -
Alan García Wanderers Aktiv 106 / 108 40% 1 09.10.2026 -
Alexis Gutiérrez Club America Aktiv 120 / 122 40% 3 08.10.2026 -
Ortwin De Wolf KV Mechelen Aktiv 107 / 116 40% 1 05.10.2026 -
Lucas Verza Olimpia Aktiv 103 / 111 40% 1 05.10.2026 -
Ricardo Echeverría Santos Laguna Aktiv 118 / 118 40% 1 04.10.2026 -
José Alberti Wanderers Aktiv 125 / 128 40% 2 30.09.2026 -
Pablo Monroy Pumas UNAM Aktiv 114 / 120 40% 1 30.09.2026 -
Alejandro Gómez Tijuana Aktiv 121 / 117 40% 2 28.09.2026 -
Aarón Mejía Tijuana Aktiv 116 / 121 40% 3 27.09.2026 -
Santiago Franca Cerro Largo Aktiv 99 / 96 40% 1 27.09.2026 -
Diego Capdevila Cerro Aktiv 82 / 95 40% 1 26.09.2026 -
Alexander Lyng SonderjyskE Aktiv 103 / 126 40% 1 26.09.2026 -
Luka Andrade Montevideo City Torque Aktiv 98 / 110 40% 1 25.09.2026 -
Dylan Cabral Arsenal Aktiv 89 / 101 40% 1 25.09.2026 -
Ezekiel Kwame Alladoh Philadelphia Union Aktiv 111 / 117 40% 1 23.09.2026 -
Renato Solís Sporting Cristal Aktiv 121 / 126 40% 1 20.09.2026 -
Juan Moreno La Luz Aktiv 115 / 118 40% 1 20.09.2026 -
Jhon Gamboa Envigado Aktiv 114 / 119 40% 1 20.09.2026 -
Juan Diego Giraldo Union Magdalena Aktiv 94 / 111 40% 1 20.09.2026 -
Erik de los Santos Racing Aktiv 117 / 117 40% 1 19.09.2026 -
Uziel García Morelia Aktiv 109 / 109 40% 1 19.09.2026 -
Ihojan Pérez Cerro Largo Aktiv 98 / 94 40% 1 17.09.2026 -
Juan José Mera Deportes Tolima Aktiv 125 / 118 40% 1 16.09.2026 -
Diego Corral Universidad Catolica Aktiv 95 / 94 40% 1 16.09.2026 -
Angel Zamudio Sport Huancayo Aktiv 112 / 122 40% 2 15.09.2026 -
Lucas Bergström Union Berlin Aktiv 135 / 134 40% 1 13.09.2026 -
Diego Chávez Deportivo Pasto Aktiv 114 / 112 40% 2 08.09.2026 -
Joaquín Varela Independiente Medellin Aktiv 120 / 117 40% 1 08.09.2026 -
Lucas Di Maio Cobresal Aktiv 83 / 78 40% 1 07.09.2026 -
Emiliano Ancheta Nacional Aktiv 127 / 113 40% 2 06.09.2026 -
Santiago Noreña Envigado Aktiv 105 / 106 40% 1 06.09.2026 -
Santiago Sequeira Central Espanol Aktiv 83 / 98 40% 1 06.09.2026 -
Tiago Pucciarelli IF Elfsborg Aktiv 95 / 116 40% 1 06.09.2026 -
Nicolás Campisi Sportivo Luqueno Aktiv 128 / 119 40% 1 02.09.2026 -
Enzo Giménez Queretaro Aktiv 116 / 123 40% 2 31.08.2026 -
Germán Barrios Defensor Sporting Aktiv 103 / 115 40% 1 31.08.2026 -
Matías Contrera Hrvatski Dragovoljac Aktiv 99 / 108 40% 1 31.08.2026 -
Jorge Caicedo Cortulua Aktiv 98 / 116 40% 1 29.08.2026 -
Michael Carcelén Queretaro Aktiv 121 / 122 40% 2 26.08.2026 -
Ezequiel Neira Carabobo Aktiv 112 / 116 40% 1 25.08.2026 -
Junior Hernández Deportes Tolima Aktiv 122 / 122 40% 1 24.08.2026 -
Alejo Macelli Cerro Aktiv 101 / 112 40% 1 23.08.2026 -
Cristhian Riveros General Caballero Aktiv 98 / 96 40% 1 21.08.2026 -
Felipe Montero La Equidad Aktiv 106 / 110 40% 1 19.08.2026 -
Carlos Jimenez Veracruz Aktiv 124 / 115 40% 1 19.08.2026 -
Beycker Velásquez Zamora Aktiv 109 / 94 40% 1 18.08.2026 -
Francisco Casanova Cerrito Aktiv 108 / 102 40% 1 18.08.2026 -
José Ortiz Atletico Bucaramanga Aktiv 121 / 112 40% 1 17.08.2026 -
Cristhián Rivas Estudiantes de Merida Aktiv 118 / 120 40% 2 16.08.2026 -
José Luis Caicedo Barranquilla Aktiv 134 / 119 40% 1 11.08.2026 -
Diego Romero Liverpool Montevideo Aktiv 116 / 110 40% 1 09.08.2026 -
Fabrizio Correa Juventud Aktiv 125 / 123 40% 1 08.08.2026 -
Bryan Rivera Estudiantes de Merida Aktiv 102 / 100 40% 1 02.08.2026 -